sensor_id;sensor_type;location;lat;lon;timestamp;P1;durP1;ratioP1;P2;durP2;ratioP2
31848;SDS011;18414;59.352;18.152;2022-12-08T00:00:34;2.43;;;1.27;;
31848;SDS011;18414;59.352;18.152;2022-12-08T00:03:00;1.53;;;1.30;;
31848;SDS011;18414;59.352;18.152;2022-12-08T00:05:25;3.83;;;1.33;;
31848;SDS011;18414;59.352;18.152;2022-12-08T00:08:09;2.17;;;1.27;;
31848;SDS011;18414;59.352;18.152;2022-12-08T00:10:53;1.77;;;1.37;;
31848;SDS011;18414;59.352;18.152;2022-12-08T00:13:18;2.20;;;1.40;;
31848;SDS011;18414;59.352;18.152;2022-12-08T00:15:43;2.97;;;1.30;;
31848;SDS011;18414;59.352;18.152;2022-12-08T00:18:09;3.73;;;1.40;;
31848;SDS011;18414;59.352;18.152;2022-12-08T00:20:34;2.50;;;1.00;;
31848;SDS011;18414;59.352;18.152;2022-12-08T00:22:59;4.50;;;1.30;;
31848;SDS011;18414;59.352;18.152;2022-12-08T00:25:25;1.70;;;1.00;;
31848;SDS011;18414;59.352;18.152;2022-12-08T00:27:50;1.63;;;1.10;;
31848;SDS011;18414;59.352;18.152;2022-12-08T00:30:15;1.83;;;1.23;;
31848;SDS011;18414;59.352;18.152;2022-12-08T00:32:41;3.60;;;1.60;;
31848;SDS011;18414;59.352;18.152;2022-12-08T00:35:06;1.63;;;1.30;;
31848;SDS011;18414;59.352;18.152;2022-12-08T00:37:32;3.30;;;1.47;;
31848;SDS011;18414;59.352;18.152;2022-12-08T00:39:57;2.17;;;1.30;;
31848;SDS011;18414;59.352;18.152;2022-12-08T00:42:22;1.77;;;1.37;;
31848;SDS011;18414;59.352;18.152;2022-12-08T00:44:48;2.87;;;1.30;;
31848;SDS011;18414;59.352;18.152;2022-12-08T00:47:13;3.00;;;1.47;;
31848;SDS011;18414;59.352;18.152;2022-12-08T00:49:39;3.53;;;1.10;;
31848;SDS011;18414;59.352;18.152;2022-12-08T00:52:04;1.43;;;1.10;;
31848;SDS011;18414;59.352;18.152;2022-12-08T00:54:30;1.47;;;1.20;;
31848;SDS011;18414;59.352;18.152;2022-12-08T00:56:55;3.23;;;1.20;;
31848;SDS011;18414;59.352;18.152;2022-12-08T00:59:20;3.73;;;1.10;;
31848;SDS011;18414;59.352;18.152;2022-12-08T01:01:46;1.17;;;0.97;;
31848;SDS011;18414;59.352;18.152;2022-12-08T01:04:12;1.30;;;1.13;;
31848;SDS011;18414;59.352;18.152;2022-12-08T01:06:42;3.47;;;1.10;;
31848;SDS011;18414;59.352;18.152;2022-12-08T01:09:08;3.00;;;1.20;;
31848;SDS011;18414;59.352;18.152;2022-12-08T01:11:34;1.87;;;1.10;;
31848;SDS011;18414;59.352;18.152;2022-12-08T01:13:59;1.53;;;1.10;;
31848;SDS011;18414;59.352;18.152;2022-12-08T01:16:26;2.13;;;1.10;;
31848;SDS011;18414;59.352;18.152;2022-12-08T01:18:53;3.50;;;1.17;;
31848;SDS011;18414;59.352;18.152;2022-12-08T01:21:18;1.03;;;0.93;;
31848;SDS011;18414;59.352;18.152;2022-12-08T01:23:44;2.67;;;1.30;;
31848;SDS011;18414;59.352;18.152;2022-12-08T01:26:11;3.17;;;1.27;;
31848;SDS011;18414;59.352;18.152;2022-12-08T01:28:37;2.00;;;1.20;;
31848;SDS011;18414;59.352;18.152;2022-12-08T01:31:03;1.30;;;1.00;;
31848;SDS011;18414;59.352;18.152;2022-12-08T01:33:28;1.43;;;1.10;;
31848;SDS011;18414;59.352;18.152;2022-12-08T01:35:54;2.10;;;1.07;;
31848;SDS011;18414;59.352;18.152;2022-12-08T01:38:20;2.13;;;1.20;;
31848;SDS011;18414;59.352;18.152;2022-12-08T01:40:46;1.70;;;0.90;;
31848;SDS011;18414;59.352;18.152;2022-12-08T01:43:13;1.97;;;1.00;;
31848;SDS011;18414;59.352;18.152;2022-12-08T01:45:40;1.23;;;0.97;;
31848;SDS011;18414;59.352;18.152;2022-12-08T01:48:07;2.50;;;1.20;;
31848;SDS011;18414;59.352;18.152;2022-12-08T01:50:36;2.13;;;1.23;;
31848;SDS011;18414;59.352;18.152;2022-12-08T01:53:25;1.70;;;1.00;;
31848;SDS011;18414;59.352;18.152;2022-12-08T01:55:57;1.43;;;1.10;;
31848;SDS011;18414;59.352;18.152;2022-12-08T01:58:31;3.17;;;1.13;;
31848;SDS011;18414;59.352;18.152;2022-12-08T02:00:59;3.63;;;1.10;;
31848;SDS011;18414;59.352;18.152;2022-12-08T02:03:33;1.30;;;0.80;;
31848;SDS011;18414;59.352;18.152;2022-12-08T02:06:00;1.43;;;1.07;;
31848;SDS011;18414;59.352;18.152;2022-12-08T02:08:26;1.20;;;1.00;;
31848;SDS011;18414;59.352;18.152;2022-12-08T02:10:52;2.13;;;0.87;;
31848;SDS011;18414;59.352;18.152;2022-12-08T02:13:18;1.73;;;0.80;;
31848;SDS011;18414;59.352;18.152;2022-12-08T02:15:48;1.60;;;1.50;;
31848;SDS011;18414;59.352;18.152;2022-12-08T02:24:13;0.70;;;0.70;;
31848;SDS011;18414;59.352;18.152;2022-12-08T02:34:56;1.50;;;0.90;;
31848;SDS011;18414;59.352;18.152;2022-12-08T02:37:30;1.37;;;0.70;;
31848;SDS011;18414;59.352;18.152;2022-12-08T02:40:02;1.43;;;0.87;;
31848;SDS011;18414;59.352;18.152;2022-12-08T02:42:30;0.70;;;0.70;;
31848;SDS011;18414;59.352;18.152;2022-12-08T02:47:59;2.97;;;0.97;;
31848;SDS011;18414;59.352;18.152;2022-12-08T02:50:24;1.43;;;0.93;;
31848;SDS011;18414;59.352;18.152;2022-12-08T02:52:51;1.60;;;1.00;;
31848;SDS011;18414;59.352;18.152;2022-12-08T03:00:28;3.47;;;1.10;;
31848;SDS011;18414;59.352;18.152;2022-12-08T03:03:31;3.33;;;1.00;;
31848;SDS011;18414;59.352;18.152;2022-12-08T03:06:04;1.93;;;1.00;;
31848;SDS011;18414;59.352;18.152;2022-12-08T03:08:54;1.73;;;1.00;;
31848;SDS011;18414;59.352;18.152;2022-12-08T03:14:09;1.83;;;1.00;;
31848;SDS011;18414;59.352;18.152;2022-12-08T03:16:39;1.30;;;0.90;;
31848;SDS011;18414;59.352;18.152;2022-12-08T03:19:41;1.73;;;1.00;;
31848;SDS011;18414;59.352;18.152;2022-12-08T03:21:59;1.50;;;1.03;;
31848;SDS011;18414;59.352;18.152;2022-12-08T03:24:30;1.20;;;0.93;;
31848;SDS011;18414;59.352;18.152;2022-12-08T03:26:59;2.30;;;1.00;;
31848;SDS011;18414;59.352;18.152;2022-12-08T03:29:27;1.20;;;1.10;;
31848;SDS011;18414;59.352;18.152;2022-12-08T03:31:55;1.17;;;1.03;;
31848;SDS011;18414;59.352;18.152;2022-12-08T03:34:23;2.17;;;1.20;;
31848;SDS011;18414;59.352;18.152;2022-12-08T03:36:50;3.23;;;1.00;;
31848;SDS011;18414;59.352;18.152;2022-12-08T03:39:15;0.97;;;0.97;;
31848;SDS011;18414;59.352;18.152;2022-12-08T03:41:41;2.27;;;1.07;;
31848;SDS011;18414;59.352;18.152;2022-12-08T03:44:06;1.83;;;0.90;;
31848;SDS011;18414;59.352;18.152;2022-12-08T03:46:31;3.07;;;1.10;;
31848;SDS011;18414;59.352;18.152;2022-12-08T03:48:57;0.83;;;0.83;;
31848;SDS011;18414;59.352;18.152;2022-12-08T03:51:23;1.87;;;1.03;;
31848;SDS011;18414;59.352;18.152;2022-12-08T03:53:48;1.73;;;0.93;;
31848;SDS011;18414;59.352;18.152;2022-12-08T03:56:15;1.17;;;1.00;;
31848;SDS011;18414;59.352;18.152;2022-12-08T03:58:48;2.13;;;1.20;;
31848;SDS011;18414;59.352;18.152;2022-12-08T04:01:13;1.27;;;0.97;;
31848;SDS011;18414;59.352;18.152;2022-12-08T04:03:39;2.67;;;1.00;;
31848;SDS011;18414;59.352;18.152;2022-12-08T04:06:04;1.77;;;1.10;;
31848;SDS011;18414;59.352;18.152;2022-12-08T04:08:30;1.37;;;1.00;;
31848;SDS011;18414;59.352;18.152;2022-12-08T04:10:56;2.53;;;1.10;;
31848;SDS011;18414;59.352;18.152;2022-12-08T04:13:21;0.80;;;0.80;;
31848;SDS011;18414;59.352;18.152;2022-12-08T04:15:46;2.33;;;1.03;;
31848;SDS011;18414;59.352;18.152;2022-12-08T04:18:13;3.13;;;1.07;;
31848;SDS011;18414;59.352;18.152;2022-12-08T04:20:39;3.07;;;1.07;;
31848;SDS011;18414;59.352;18.152;2022-12-08T04:23:05;1.13;;;0.90;;
31848;SDS011;18414;59.352;18.152;2022-12-08T04:25:31;2.33;;;1.20;;
31848;SDS011;18414;59.352;18.152;2022-12-08T04:27:57;2.37;;;1.00;;
31848;SDS011;18414;59.352;18.152;2022-12-08T04:30:22;2.63;;;1.00;;
31848;SDS011;18414;59.352;18.152;2022-12-08T04:32:47;1.20;;;1.00;;
31848;SDS011;18414;59.352;18.152;2022-12-08T04:35:12;4.03;;;1.10;;
31848;SDS011;18414;59.352;18.152;2022-12-08T04:37:38;1.43;;;1.00;;
31848;SDS011;18414;59.352;18.152;2022-12-08T04:40:03;2.20;;;1.10;;
31848;SDS011;18414;59.352;18.152;2022-12-08T04:42:29;2.10;;;1.10;;
31848;SDS011;18414;59.352;18.152;2022-12-08T04:44:54;0.87;;;0.87;;
31848;SDS011;18414;59.352;18.152;2022-12-08T04:47:20;1.27;;;0.97;;
31848;SDS011;18414;59.352;18.152;2022-12-08T04:49:46;1.57;;;1.40;;
31848;SDS011;18414;59.352;18.152;2022-12-08T04:52:11;1.57;;;1.00;;
31848;SDS011;18414;59.352;18.152;2022-12-08T04:54:36;1.20;;;1.10;;
31848;SDS011;18414;59.352;18.152;2022-12-08T04:57:02;1.50;;;1.00;;
31848;SDS011;18414;59.352;18.152;2022-12-08T04:59:27;0.77;;;0.70;;
31848;SDS011;18414;59.352;18.152;2022-12-08T05:01:52;1.13;;;0.90;;
31848;SDS011;18414;59.352;18.152;2022-12-08T05:04:18;0.80;;;0.80;;
31848;SDS011;18414;59.352;18.152;2022-12-08T05:06:43;0.90;;;0.80;;
31848;SDS011;18414;59.352;18.152;2022-12-08T05:09:08;1.20;;;0.90;;
31848;SDS011;18414;59.352;18.152;2022-12-08T05:11:34;1.27;;;0.80;;
31848;SDS011;18414;59.352;18.152;2022-12-08T05:13:59;2.60;;;0.90;;
31848;SDS011;18414;59.352;18.152;2022-12-08T05:16:24;1.97;;;1.17;;
31848;SDS011;18414;59.352;18.152;2022-12-08T05:18:50;1.87;;;0.97;;
31848;SDS011;18414;59.352;18.152;2022-12-08T05:21:15;2.83;;;0.97;;
31848;SDS011;18414;59.352;18.152;2022-12-08T05:23:40;0.83;;;0.80;;
31848;SDS011;18414;59.352;18.152;2022-12-08T05:26:06;1.20;;;0.80;;
31848;SDS011;18414;59.352;18.152;2022-12-08T05:28:31;3.40;;;1.00;;
31848;SDS011;18414;59.352;18.152;2022-12-08T05:30:57;2.30;;;0.90;;
31848;SDS011;18414;59.352;18.152;2022-12-08T05:33:23;1.43;;;1.00;;
31848;SDS011;18414;59.352;18.152;2022-12-08T05:35:48;1.67;;;1.10;;
31848;SDS011;18414;59.352;18.152;2022-12-08T05:38:13;1.73;;;1.03;;
31848;SDS011;18414;59.352;18.152;2022-12-08T05:40:39;2.00;;;1.10;;
31848;SDS011;18414;59.352;18.152;2022-12-08T05:43:05;1.47;;;1.00;;
31848;SDS011;18414;59.352;18.152;2022-12-08T05:45:31;1.17;;;0.87;;
31848;SDS011;18414;59.352;18.152;2022-12-08T05:47:58;2.10;;;0.87;;
31848;SDS011;18414;59.352;18.152;2022-12-08T05:50:23;0.97;;;0.87;;
31848;SDS011;18414;59.352;18.152;2022-12-08T05:52:49;2.60;;;1.10;;
31848;SDS011;18414;59.352;18.152;2022-12-08T05:55:14;2.37;;;1.00;;
31848;SDS011;18414;59.352;18.152;2022-12-08T05:57:40;1.63;;;0.83;;
31848;SDS011;18414;59.352;18.152;2022-12-08T06:00:05;3.27;;;1.00;;
31848;SDS011;18414;59.352;18.152;2022-12-08T06:02:31;1.50;;;0.90;;
31848;SDS011;18414;59.352;18.152;2022-12-08T06:04:56;1.10;;;1.00;;
31848;SDS011;18414;59.352;18.152;2022-12-08T06:07:22;3.50;;;1.03;;
31848;SDS011;18414;59.352;18.152;2022-12-08T06:09:47;0.83;;;0.83;;
31848;SDS011;18414;59.352;18.152;2022-12-08T06:12:12;1.20;;;0.87;;
31848;SDS011;18414;59.352;18.152;2022-12-08T06:14:40;5.30;;;1.00;;
31848;SDS011;18414;59.352;18.152;2022-12-08T06:17:05;1.03;;;0.93;;
31848;SDS011;18414;59.352;18.152;2022-12-08T06:19:31;1.10;;;1.00;;
31848;SDS011;18414;59.352;18.152;2022-12-08T06:21:56;2.20;;;1.00;;
31848;SDS011;18414;59.352;18.152;2022-12-08T06:24:21;1.57;;;1.00;;
31848;SDS011;18414;59.352;18.152;2022-12-08T06:26:47;1.53;;;0.90;;
31848;SDS011;18414;59.352;18.152;2022-12-08T06:29:12;1.10;;;1.00;;
31848;SDS011;18414;59.352;18.152;2022-12-08T06:31:38;2.83;;;1.10;;
31848;SDS011;18414;59.352;18.152;2022-12-08T06:34:03;2.67;;;1.10;;
31848;SDS011;18414;59.352;18.152;2022-12-08T06:36:30;1.67;;;1.03;;
31848;SDS011;18414;59.352;18.152;2022-12-08T06:38:55;2.50;;;0.80;;
31848;SDS011;18414;59.352;18.152;2022-12-08T06:41:21;2.87;;;0.73;;
31848;SDS011;18414;59.352;18.152;2022-12-08T06:43:46;1.20;;;0.80;;
31848;SDS011;18414;59.352;18.152;2022-12-08T06:46:13;4.97;;;1.10;;
31848;SDS011;18414;59.352;18.152;2022-12-08T06:48:40;1.83;;;1.10;;
31848;SDS011;18414;59.352;18.152;2022-12-08T06:51:09;1.40;;;1.17;;
31848;SDS011;18414;59.352;18.152;2022-12-08T06:53:36;4.40;;;0.90;;
31848;SDS011;18414;59.352;18.152;2022-12-08T06:56:02;2.70;;;1.33;;
31848;SDS011;18414;59.352;18.152;2022-12-08T06:58:27;3.00;;;1.10;;
31848;SDS011;18414;59.352;18.152;2022-12-08T07:00:53;1.80;;;0.90;;
31848;SDS011;18414;59.352;18.152;2022-12-08T07:03:18;0.90;;;0.90;;
31848;SDS011;18414;59.352;18.152;2022-12-08T07:05:43;1.70;;;0.80;;
31848;SDS011;18414;59.352;18.152;2022-12-08T07:08:09;1.97;;;0.90;;
31848;SDS011;18414;59.352;18.152;2022-12-08T07:10:34;4.17;;;1.00;;
31848;SDS011;18414;59.352;18.152;2022-12-08T07:13:00;1.90;;;0.97;;
31848;SDS011;18414;59.352;18.152;2022-12-08T07:15:25;1.47;;;1.00;;
31848;SDS011;18414;59.352;18.152;2022-12-08T07:17:51;3.80;;;1.00;;
31848;SDS011;18414;59.352;18.152;2022-12-08T07:20:17;1.73;;;0.80;;
31848;SDS011;18414;59.352;18.152;2022-12-08T07:22:49;2.07;;;1.13;;
31848;SDS011;18414;59.352;18.152;2022-12-08T07:25:15;4.17;;;1.10;;
31848;SDS011;18414;59.352;18.152;2022-12-08T07:27:41;1.33;;;0.87;;
31848;SDS011;18414;59.352;18.152;2022-12-08T07:30:06;2.73;;;1.00;;
31848;SDS011;18414;59.352;18.152;2022-12-08T07:32:32;1.83;;;1.03;;
31848;SDS011;18414;59.352;18.152;2022-12-08T07:34:57;1.00;;;0.90;;
31848;SDS011;18414;59.352;18.152;2022-12-08T07:37:23;1.63;;;1.10;;
31848;SDS011;18414;59.352;18.152;2022-12-08T07:39:48;2.87;;;0.97;;
31848;SDS011;18414;59.352;18.152;2022-12-08T07:42:13;2.17;;;1.10;;
31848;SDS011;18414;59.352;18.152;2022-12-08T07:44:38;1.00;;;0.90;;
31848;SDS011;18414;59.352;18.152;2022-12-08T07:47:04;1.63;;;1.10;;
31848;SDS011;18414;59.352;18.152;2022-12-08T07:49:29;2.77;;;1.00;;
31848;SDS011;18414;59.352;18.152;2022-12-08T07:51:54;2.17;;;1.30;;
31848;SDS011;18414;59.352;18.152;2022-12-08T07:54:20;1.83;;;1.37;;
31848;SDS011;18414;59.352;18.152;2022-12-08T07:56:45;1.10;;;1.00;;
31848;SDS011;18414;59.352;18.152;2022-12-08T07:59:11;11.37;;;1.47;;
31848;SDS011;18414;59.352;18.152;2022-12-08T08:01:36;1.97;;;1.10;;
31848;SDS011;18414;59.352;18.152;2022-12-08T08:04:02;3.47;;;1.77;;
31848;SDS011;18414;59.352;18.152;2022-12-08T08:06:29;4.87;;;0.87;;
31848;SDS011;18414;59.352;18.152;2022-12-08T08:08:55;1.17;;;0.83;;
31848;SDS011;18414;59.352;18.152;2022-12-08T08:11:21;1.60;;;1.30;;
31848;SDS011;18414;59.352;18.152;2022-12-08T08:13:47;4.23;;;1.07;;
31848;SDS011;18414;59.352;18.152;2022-12-08T08:16:13;2.37;;;1.03;;
31848;SDS011;18414;59.352;18.152;2022-12-08T08:18:38;7.30;;;1.40;;
31848;SDS011;18414;59.352;18.152;2022-12-08T08:21:05;2.80;;;1.10;;
31848;SDS011;18414;59.352;18.152;2022-12-08T08:23:31;2.83;;;1.10;;
31848;SDS011;18414;59.352;18.152;2022-12-08T08:25:58;1.90;;;1.17;;
31848;SDS011;18414;59.352;18.152;2022-12-08T08:28:24;1.40;;;0.97;;
31848;SDS011;18414;59.352;18.152;2022-12-08T08:30:50;2.73;;;1.10;;
31848;SDS011;18414;59.352;18.152;2022-12-08T08:33:15;3.10;;;1.30;;
31848;SDS011;18414;59.352;18.152;2022-12-08T08:35:40;5.10;;;1.47;;
31848;SDS011;18414;59.352;18.152;2022-12-08T08:38:06;2.70;;;1.17;;
31848;SDS011;18414;59.352;18.152;2022-12-08T08:40:32;2.77;;;1.60;;
31848;SDS011;18414;59.352;18.152;2022-12-08T08:42:59;4.03;;;1.43;;
31848;SDS011;18414;59.352;18.152;2022-12-08T08:45:30;5.90;;;1.43;;
31848;SDS011;18414;59.352;18.152;2022-12-08T08:47:56;2.80;;;1.40;;
31848;SDS011;18414;59.352;18.152;2022-12-08T08:50:21;4.90;;;1.50;;
31848;SDS011;18414;59.352;18.152;2022-12-08T08:52:47;2.87;;;1.87;;
31848;SDS011;18414;59.352;18.152;2022-12-08T08:55:12;2.97;;;1.27;;
31848;SDS011;18414;59.352;18.152;2022-12-08T08:57:38;1.77;;;1.30;;
31848;SDS011;18414;59.352;18.152;2022-12-08T09:00:04;2.53;;;1.50;;
31848;SDS011;18414;59.352;18.152;2022-12-08T09:02:30;7.67;;;1.47;;
31848;SDS011;18414;59.352;18.152;2022-12-08T09:04:55;4.07;;;1.60;;
31848;SDS011;18414;59.352;18.152;2022-12-08T09:07:21;3.20;;;1.40;;
31848;SDS011;18414;59.352;18.152;2022-12-08T09:09:46;5.47;;;1.30;;
31848;SDS011;18414;59.352;18.152;2022-12-08T09:12:12;2.97;;;1.73;;
31848;SDS011;18414;59.352;18.152;2022-12-08T09:14:38;1.20;;;0.90;;
31848;SDS011;18414;59.352;18.152;2022-12-08T09:17:06;1.50;;;1.30;;
31848;SDS011;18414;59.352;18.152;2022-12-08T09:19:32;3.30;;;1.10;;
31848;SDS011;18414;59.352;18.152;2022-12-08T09:21:57;3.97;;;1.50;;
31848;SDS011;18414;59.352;18.152;2022-12-08T09:24:23;2.53;;;1.50;;
31848;SDS011;18414;59.352;18.152;2022-12-08T09:26:48;1.97;;;1.20;;
31848;SDS011;18414;59.352;18.152;2022-12-08T09:29:14;3.13;;;1.20;;
31848;SDS011;18414;59.352;18.152;2022-12-08T09:31:39;1.70;;;1.30;;
31848;SDS011;18414;59.352;18.152;2022-12-08T09:34:05;2.63;;;1.13;;
31848;SDS011;18414;59.352;18.152;2022-12-08T09:36:31;4.37;;;1.20;;
31848;SDS011;18414;59.352;18.152;2022-12-08T09:38:56;1.50;;;1.20;;
31848;SDS011;18414;59.352;18.152;2022-12-08T09:41:35;2.33;;;1.10;;
31848;SDS011;18414;59.352;18.152;2022-12-08T09:44:06;3.23;;;1.37;;
31848;SDS011;18414;59.352;18.152;2022-12-08T09:46:40;3.80;;;1.07;;
31848;SDS011;18414;59.352;18.152;2022-12-08T09:49:08;4.30;;;1.40;;
31848;SDS011;18414;59.352;18.152;2022-12-08T09:51:38;1.80;;;1.27;;
31848;SDS011;18414;59.352;18.152;2022-12-08T09:56:42;2.13;;;0.90;;
31848;SDS011;18414;59.352;18.152;2022-12-08T10:01:33;2.67;;;1.40;;
31848;SDS011;18414;59.352;18.152;2022-12-08T10:04:02;3.53;;;1.07;;
31848;SDS011;18414;59.352;18.152;2022-12-08T10:17:00;5.07;;;1.17;;
31848;SDS011;18414;59.352;18.152;2022-12-08T10:19:34;2.30;;;1.30;;
31848;SDS011;18414;59.352;18.152;2022-12-08T10:21:59;2.90;;;1.30;;
31848;SDS011;18414;59.352;18.152;2022-12-08T10:24:30;4.37;;;1.70;;
31848;SDS011;18414;59.352;18.152;2022-12-08T10:26:59;3.13;;;1.37;;
31848;SDS011;18414;59.352;18.152;2022-12-08T10:29:25;4.67;;;1.67;;
31848;SDS011;18414;59.352;18.152;2022-12-08T10:31:50;2.37;;;1.53;;
31848;SDS011;18414;59.352;18.152;2022-12-08T10:34:22;3.93;;;1.37;;
31848;SDS011;18414;59.352;18.152;2022-12-08T10:39:37;2.80;;;1.70;;
31848;SDS011;18414;59.352;18.152;2022-12-08T10:45:01;3.27;;;1.80;;
31848;SDS011;18414;59.352;18.152;2022-12-08T10:47:28;3.27;;;1.77;;
31848;SDS011;18414;59.352;18.152;2022-12-08T10:55:40;3.50;;;1.77;;
31848;SDS011;18414;59.352;18.152;2022-12-08T10:58:21;3.83;;;1.63;;
31848;SDS011;18414;59.352;18.152;2022-12-08T11:00:49;4.00;;;2.00;;
31848;SDS011;18414;59.352;18.152;2022-12-08T11:03:24;3.00;;;1.60;;
31848;SDS011;18414;59.352;18.152;2022-12-08T11:05:54;5.00;;;1.30;;
31848;SDS011;18414;59.352;18.152;2022-12-08T11:08:20;2.07;;;1.33;;
31848;SDS011;18414;59.352;18.152;2022-12-08T11:10:46;4.20;;;1.60;;
31848;SDS011;18414;59.352;18.152;2022-12-08T11:13:14;2.37;;;1.60;;
31848;SDS011;18414;59.352;18.152;2022-12-08T11:15:43;2.03;;;1.40;;
31848;SDS011;18414;59.352;18.152;2022-12-08T11:18:20;4.73;;;1.73;;
31848;SDS011;18414;59.352;18.152;2022-12-08T11:20:46;3.27;;;1.57;;
31848;SDS011;18414;59.352;18.152;2022-12-08T11:23:19;8.73;;;1.93;;
31848;SDS011;18414;59.352;18.152;2022-12-08T11:25:46;4.40;;;2.07;;
31848;SDS011;18414;59.352;18.152;2022-12-08T11:28:12;2.77;;;1.70;;
31848;SDS011;18414;59.352;18.152;2022-12-08T11:30:38;5.23;;;1.67;;
31848;SDS011;18414;59.352;18.152;2022-12-08T11:33:13;4.50;;;1.70;;
31848;SDS011;18414;59.352;18.152;2022-12-08T11:35:41;3.10;;;1.73;;
31848;SDS011;18414;59.352;18.152;2022-12-08T11:38:27;3.13;;;1.40;;
31848;SDS011;18414;59.352;18.152;2022-12-08T11:40:54;2.30;;;1.50;;
31848;SDS011;18414;59.352;18.152;2022-12-08T11:46:01;3.03;;;2.00;;
31848;SDS011;18414;59.352;18.152;2022-12-08T11:48:45;7.10;;;1.60;;
31848;SDS011;18414;59.352;18.152;2022-12-08T11:51:38;2.70;;;1.70;;
31848;SDS011;18414;59.352;18.152;2022-12-08T11:56:50;4.97;;;1.67;;
31848;SDS011;18414;59.352;18.152;2022-12-08T12:01:47;2.90;;;1.67;;
31848;SDS011;18414;59.352;18.152;2022-12-08T12:07:08;2.17;;;1.60;;
31848;SDS011;18414;59.352;18.152;2022-12-08T12:18:22;4.43;;;1.70;;
31848;SDS011;18414;59.352;18.152;2022-12-08T12:20:51;4.43;;;1.70;;
31848;SDS011;18414;59.352;18.152;2022-12-08T12:23:23;4.77;;;1.60;;
31848;SDS011;18414;59.352;18.152;2022-12-08T12:25:57;3.47;;;1.60;;
31848;SDS011;18414;59.352;18.152;2022-12-08T12:28:25;2.90;;;1.90;;
31848;SDS011;18414;59.352;18.152;2022-12-08T12:31:00;6.10;;;2.20;;
31848;SDS011;18414;59.352;18.152;2022-12-08T12:33:29;4.03;;;2.10;;
31848;SDS011;18414;59.352;18.152;2022-12-08T12:35:55;4.37;;;2.20;;
31848;SDS011;18414;59.352;18.152;2022-12-08T12:38:30;4.07;;;2.37;;
31848;SDS011;18414;59.352;18.152;2022-12-08T12:41:20;3.33;;;2.03;;
31848;SDS011;18414;59.352;18.152;2022-12-08T12:52:02;3.30;;;1.97;;
31848;SDS011;18414;59.352;18.152;2022-12-08T12:54:33;2.93;;;1.50;;
31848;SDS011;18414;59.352;18.152;2022-12-08T12:59:46;3.67;;;1.60;;
31848;SDS011;18414;59.352;18.152;2022-12-08T13:02:27;2.50;;;1.80;;
31848;SDS011;18414;59.352;18.152;2022-12-08T13:04:55;3.07;;;1.70;;
31848;SDS011;18414;59.352;18.152;2022-12-08T13:07:24;3.10;;;1.83;;
31848;SDS011;18414;59.352;18.152;2022-12-08T13:09:54;3.43;;;1.83;;
31848;SDS011;18414;59.352;18.152;2022-12-08T13:12:25;3.70;;;2.00;;
31848;SDS011;18414;59.352;18.152;2022-12-08T13:14:52;3.47;;;1.80;;
31848;SDS011;18414;59.352;18.152;2022-12-08T13:17:24;3.00;;;1.83;;
31848;SDS011;18414;59.352;18.152;2022-12-08T13:19:53;4.87;;;1.60;;
31848;SDS011;18414;59.352;18.152;2022-12-08T13:30:48;3.93;;;1.63;;
31848;SDS011;18414;59.352;18.152;2022-12-08T13:35:59;3.67;;;1.60;;
31848;SDS011;18414;59.352;18.152;2022-12-08T13:38:25;2.50;;;1.60;;
31848;SDS011;18414;59.352;18.152;2022-12-08T13:40:52;2.37;;;1.57;;
31848;SDS011;18414;59.352;18.152;2022-12-08T13:46:05;3.23;;;1.77;;
31848;SDS011;18414;59.352;18.152;2022-12-08T13:48:49;2.90;;;1.90;;
31848;SDS011;18414;59.352;18.152;2022-12-08T13:51:17;6.00;;;2.17;;
31848;SDS011;18414;59.352;18.152;2022-12-08T13:53:57;5.43;;;2.07;;
31848;SDS011;18414;59.352;18.152;2022-12-08T13:56:25;3.67;;;2.10;;
31848;SDS011;18414;59.352;18.152;2022-12-08T13:58:51;2.43;;;1.73;;
31848;SDS011;18414;59.352;18.152;2022-12-08T14:01:38;3.53;;;2.00;;
31848;SDS011;18414;59.352;18.152;2022-12-08T14:04:14;6.67;;;1.80;;
31848;SDS011;18414;59.352;18.152;2022-12-08T14:06:42;2.43;;;1.90;;
31848;SDS011;18414;59.352;18.152;2022-12-08T14:09:10;2.90;;;1.90;;
31848;SDS011;18414;59.352;18.152;2022-12-08T14:11:40;4.50;;;2.20;;
31848;SDS011;18414;59.352;18.152;2022-12-08T14:16:48;5.27;;;1.90;;
31848;SDS011;18414;59.352;18.152;2022-12-08T14:19:23;6.27;;;2.13;;
31848;SDS011;18414;59.352;18.152;2022-12-08T14:21:52;3.80;;;2.20;;
31848;SDS011;18414;59.352;18.152;2022-12-08T14:24:23;5.63;;;2.23;;
31848;SDS011;18414;59.352;18.152;2022-12-08T14:26:53;3.37;;;2.30;;
31848;SDS011;18414;59.352;18.152;2022-12-08T14:34:53;5.60;;;2.70;;
31848;SDS011;18414;59.352;18.152;2022-12-08T14:37:18;3.10;;;2.40;;
31848;SDS011;18414;59.352;18.152;2022-12-08T14:39:44;3.27;;;2.10;;
31848;SDS011;18414;59.352;18.152;2022-12-08T14:42:23;3.40;;;2.17;;
31848;SDS011;18414;59.352;18.152;2022-12-08T14:44:59;3.93;;;2.50;;
31848;SDS011;18414;59.352;18.152;2022-12-08T14:47:29;4.97;;;2.40;;
31848;SDS011;18414;59.352;18.152;2022-12-08T14:49:56;6.03;;;2.17;;
31848;SDS011;18414;59.352;18.152;2022-12-08T14:52:22;3.70;;;2.23;;
31848;SDS011;18414;59.352;18.152;2022-12-08T14:54:48;4.97;;;2.50;;
31848;SDS011;18414;59.352;18.152;2022-12-08T14:57:14;4.33;;;2.53;;
31848;SDS011;18414;59.352;18.152;2022-12-08T14:59:40;3.93;;;2.50;;
31848;SDS011;18414;59.352;18.152;2022-12-08T15:04:36;3.87;;;2.50;;
31848;SDS011;18414;59.352;18.152;2022-12-08T15:07:11;3.83;;;2.40;;
31848;SDS011;18414;59.352;18.152;2022-12-08T15:09:40;7.40;;;2.63;;
31848;SDS011;18414;59.352;18.152;2022-12-08T15:14:41;3.27;;;2.40;;
31848;SDS011;18414;59.352;18.152;2022-12-08T15:17:56;4.23;;;2.50;;
31848;SDS011;18414;59.352;18.152;2022-12-08T15:22:51;4.97;;;2.50;;
31848;SDS011;18414;59.352;18.152;2022-12-08T15:25:16;5.00;;;2.40;;
31848;SDS011;18414;59.352;18.152;2022-12-08T15:27:42;3.60;;;2.50;;
31848;SDS011;18414;59.352;18.152;2022-12-08T15:30:11;2.97;;;1.97;;
31848;SDS011;18414;59.352;18.152;2022-12-08T15:32:38;3.80;;;2.00;;
31848;SDS011;18414;59.352;18.152;2022-12-08T15:35:03;4.00;;;2.43;;
31848;SDS011;18414;59.352;18.152;2022-12-08T15:37:29;3.30;;;2.33;;
31848;SDS011;18414;59.352;18.152;2022-12-08T15:39:54;4.47;;;2.40;;
31848;SDS011;18414;59.352;18.152;2022-12-08T15:42:19;3.60;;;2.27;;
31848;SDS011;18414;59.352;18.152;2022-12-08T15:44:45;4.83;;;2.60;;
31848;SDS011;18414;59.352;18.152;2022-12-08T15:47:14;3.07;;;2.27;;
31848;SDS011;18414;59.352;18.152;2022-12-08T15:49:41;3.63;;;2.20;;
31848;SDS011;18414;59.352;18.152;2022-12-08T15:52:11;5.97;;;2.60;;
31848;SDS011;18414;59.352;18.152;2022-12-08T15:54:38;3.37;;;2.47;;
31848;SDS011;18414;59.352;18.152;2022-12-08T15:57:03;3.60;;;2.37;;
31848;SDS011;18414;59.352;18.152;2022-12-08T15:59:29;3.63;;;2.73;;
31848;SDS011;18414;59.352;18.152;2022-12-08T16:01:55;7.03;;;2.93;;
31848;SDS011;18414;59.352;18.152;2022-12-08T16:04:21;4.63;;;3.07;;
31848;SDS011;18414;59.352;18.152;2022-12-08T16:06:47;4.40;;;2.93;;
31848;SDS011;18414;59.352;18.152;2022-12-08T16:09:34;4.23;;;2.40;;
31848;SDS011;18414;59.352;18.152;2022-12-08T16:12:02;4.13;;;2.43;;
31848;SDS011;18414;59.352;18.152;2022-12-08T16:14:46;3.60;;;2.90;;
31848;SDS011;18414;59.352;18.152;2022-12-08T16:17:12;4.70;;;2.77;;
31848;SDS011;18414;59.352;18.152;2022-12-08T16:19:38;5.23;;;2.97;;
31848;SDS011;18414;59.352;18.152;2022-12-08T16:22:03;2.97;;;2.60;;
31848;SDS011;18414;59.352;18.152;2022-12-08T16:24:29;4.57;;;3.17;;
31848;SDS011;18414;59.352;18.152;2022-12-08T16:26:54;6.47;;;3.70;;
31848;SDS011;18414;59.352;18.152;2022-12-08T16:29:20;4.27;;;2.60;;